createdAt,value
2018-12-04T00:00:44.321Z,46.00
2018-12-04T00:03:12.560Z,47.23
2018-12-04T00:05:40.764Z,50.23
2018-12-04T00:08:08.975Z,55.73
2018-12-04T00:10:37.265Z,56.10
2018-12-04T00:13:05.470Z,58.00
2018-12-04T00:15:33.633Z,57.67
2018-12-04T00:18:01.842Z,58.80
2018-12-04T00:20:30.055Z,59.23
2018-12-04T00:22:58.222Z,60.43
2018-12-04T00:25:26.400Z,59.23
2018-12-04T00:27:54.640Z,56.07
2018-12-04T00:30:22.820Z,56.00
2018-12-04T00:32:50.972Z,61.00
2018-12-04T00:35:19.174Z,68.40
2018-12-04T00:37:47.345Z,60.37
2018-12-04T00:40:15.522Z,69.73
2018-12-04T00:42:43.761Z,70.60
2018-12-04T00:45:12.026Z,69.73
2018-12-04T00:53:34.743Z,65.80
2018-12-04T00:56:02.939Z,63.83
2018-12-04T00:58:31.104Z,65.23
2018-12-04T01:00:59.391Z,63.17
2018-12-04T01:03:27.566Z,62.57
2018-12-04T01:05:55.739Z,66.00
2018-12-04T01:08:23.945Z,61.37
2018-12-04T01:10:52.268Z,63.90
2018-12-04T01:13:20.437Z,72.87
2018-12-04T01:15:48.691Z,73.13
2018-12-04T01:18:16.968Z,75.43
2018-12-04T01:20:45.128Z,71.90
2018-12-04T01:23:13.324Z,77.40
2018-12-04T01:25:41.529Z,70.77
2018-12-04T01:28:09.866Z,74.37
2018-12-04T01:30:38.034Z,76.90
2018-12-04T01:33:06.208Z,65.77
2018-12-04T01:35:34.414Z,65.47
2018-12-04T01:38:02.577Z,76.50
2018-12-04T01:40:30.809Z,72.60
2018-12-04T01:42:58.978Z,72.13
2018-12-04T01:45:27.192Z,73.40
2018-12-04T01:47:55.382Z,78.07
2018-12-04T01:50:23.558Z,78.47
2018-12-04T01:52:51.748Z,67.50
2018-12-04T01:55:19.928Z,73.80
2018-12-04T01:57:48.154Z,74.43
2018-12-04T02:00:16.320Z,68.97
2018-12-04T02:02:44.527Z,72.43
2018-12-04T02:05:12.742Z,64.67
2018-12-04T02:07:40.949Z,71.97
2018-12-04T02:10:09.155Z,73.83
2018-12-04T02:12:37.362Z,78.57
2018-12-04T02:15:05.695Z,67.60
2018-12-04T02:17:33.887Z,70.80
2018-12-04T02:20:02.126Z,67.33
2018-12-04T02:22:30.321Z,64.77
2018-12-04T02:24:58.526Z,64.87
2018-12-04T02:27:26.704Z,71.63
2018-12-04T02:29:54.899Z,68.50
2018-12-04T02:32:23.061Z,67.97
2018-12-04T02:34:51.234Z,64.83
2018-12-04T02:37:19.468Z,72.83
2018-12-04T02:39:47.638Z,71.00
2018-12-04T02:42:17.755Z,72.87
2018-12-04T02:44:45.943Z,65.70
2018-12-04T02:47:14.118Z,66.80
2018-12-04T02:49:42.354Z,68.37
2018-12-04T02:52:10.552Z,61.97
2018-12-04T02:54:38.737Z,61.17
2018-12-04T02:57:06.987Z,60.13
2018-12-04T02:59:35.326Z,68.43
2018-12-04T03:02:03.833Z,68.50
2018-12-04T03:04:31.999Z,63.17
2018-12-04T03:07:00.196Z,69.03
2018-12-04T03:09:28.372Z,66.27
2018-12-04T03:11:56.608Z,61.70
2018-12-04T03:14:24.850Z,59.80
2018-12-04T03:16:53.075Z,60.60
2018-12-04T03:19:21.255Z,51.10
2018-12-04T03:21:49.425Z,51.43
2018-12-04T03:24:17.621Z,61.97
2018-12-04T03:26:46.305Z,53.37
2018-12-04T03:29:14.461Z,51.40
2018-12-04T03:31:42.642Z,50.57
2018-12-04T03:34:10.868Z,52.50
2018-12-04T03:36:39.029Z,48.87
2018-12-04T03:39:07.868Z,46.60
2018-12-04T03:41:36.091Z,48.77
2018-12-04T03:44:04.335Z,49.37
2018-12-04T03:46:32.535Z,48.20
2018-12-04T03:49:00.744Z,47.33
2018-12-04T03:51:28.915Z,50.13
2018-12-04T03:53:57.114Z,38.17
2018-12-04T03:56:25.283Z,37.57
2018-12-04T03:58:53.522Z,36.57
2018-12-04T04:01:21.732Z,33.67
2018-12-04T04:03:49.961Z,37.33
2018-12-04T04:06:18.140Z,34.43
2018-12-04T04:08:46.339Z,35.60
2018-12-04T04:11:14.497Z,32.10
2018-12-04T04:13:42.667Z,32.90
2018-12-04T04:16:10.905Z,33.40
2018-12-04T04:18:39.070Z,35.67
2018-12-04T04:21:07.285Z,32.27
2018-12-04T04:23:35.481Z,32.07
2018-12-04T04:26:03.758Z,29.83
2018-12-04T04:28:31.971Z,29.77
2018-12-04T04:31:00.131Z,27.70
2018-12-04T04:33:28.296Z,24.73
2018-12-04T04:35:58.091Z,28.87
2018-12-04T04:38:26.273Z,26.43
2018-12-04T04:40:54.522Z,27.87
2018-12-04T04:43:22.690Z,24.00
2018-12-04T04:45:50.867Z,23.30
2018-12-04T04:48:19.061Z,23.50
2018-12-04T04:50:47.261Z,26.10
2018-12-04T04:53:15.439Z,21.77
2018-12-04T04:55:43.666Z,25.30
2018-12-04T04:58:11.832Z,22.50
2018-12-04T05:00:40.042Z,24.03
2018-12-04T05:03:08.259Z,25.23
2018-12-04T05:05:37.446Z,21.93
2018-12-04T05:08:05.618Z,22.13
2018-12-04T05:10:33.823Z,22.13
2018-12-04T05:13:02.013Z,22.43
2018-12-04T05:15:30.196Z,20.77
2018-12-04T05:17:58.429Z,19.40
2018-12-04T05:20:26.649Z,20.93
2018-12-04T05:22:54.810Z,21.53
2018-12-04T05:25:23.118Z,23.13
2018-12-04T05:27:51.316Z,23.67
2018-12-04T05:30:19.596Z,23.43
2018-12-04T05:32:47.841Z,25.37
2018-12-04T05:35:16.039Z,17.10
2018-12-04T05:37:44.212Z,20.73
2018-12-04T05:40:12.409Z,19.90
2018-12-04T05:42:40.589Z,20.20
2018-12-04T05:45:08.845Z,19.23
2018-12-04T05:47:37.013Z,26.10
2018-12-04T05:50:06.119Z,23.20
2018-12-04T05:52:35.219Z,25.37
2018-12-04T05:55:03.531Z,23.43
2018-12-04T05:57:31.701Z,27.70
2018-12-04T05:59:59.878Z,19.40
2018-12-04T06:02:28.077Z,22.13
2018-12-04T06:04:56.281Z,23.90
2018-12-04T06:07:24.521Z,22.37
2018-12-04T06:09:52.746Z,23.63
2018-12-04T06:12:20.972Z,25.97
2018-12-04T06:14:49.161Z,27.87
2018-12-04T06:17:17.471Z,22.40
2018-12-04T06:19:45.626Z,21.87
2018-12-04T06:22:13.825Z,23.97
2018-12-04T06:24:42.083Z,26.20
2018-12-04T06:27:10.391Z,21.47
2018-12-04T06:29:38.560Z,21.30
2018-12-04T06:32:06.734Z,19.87
2018-12-04T06:34:34.973Z,20.23
2018-12-04T06:37:03.142Z,23.33
2018-12-04T06:39:31.366Z,22.80
2018-12-04T06:41:59.580Z,23.67
2018-12-04T06:44:27.803Z,24.27
2018-12-04T06:46:55.973Z,24.30
2018-12-04T06:49:24.211Z,22.90
2018-12-04T06:51:52.406Z,30.77
2018-12-04T06:54:20.620Z,21.77
2018-12-04T06:56:48.855Z,24.80
2018-12-04T06:59:17.006Z,19.30
2018-12-04T07:01:45.175Z,14.20
2018-12-04T07:04:13.357Z,11.37
2018-12-04T07:06:41.617Z,17.40
2018-12-04T07:09:09.820Z,12.70
2018-12-04T07:11:37.983Z,26.13
2018-12-04T07:14:06.145Z,31.53
2018-12-04T07:16:34.341Z,32.00
2018-12-04T07:19:02.573Z,34.67
2018-12-04T07:21:30.746Z,33.00
2018-12-04T07:23:58.959Z,30.20
2018-12-04T07:26:27.187Z,28.40
2018-12-04T07:28:55.389Z,29.07
2018-12-04T07:31:23.560Z,27.53
2018-12-04T07:33:51.769Z,24.50
2018-12-04T07:36:19.980Z,23.43
2018-12-04T07:38:48.162Z,24.43
2018-12-04T07:41:16.377Z,23.87
2018-12-04T07:43:44.578Z,27.43
2018-12-04T07:46:12.849Z,25.70
2018-12-04T07:48:41.055Z,24.80
2018-12-04T07:51:09.294Z,24.67
2018-12-04T07:53:37.504Z,23.20
2018-12-04T07:56:05.706Z,21.03
2018-12-04T07:58:33.886Z,33.50
2018-12-04T08:01:02.089Z,24.60
2018-12-04T08:03:30.262Z,21.63
2018-12-04T08:06:00.416Z,27.47
2018-12-04T08:08:28.606Z,31.40
2018-12-04T08:10:56.810Z,29.83
2018-12-04T08:13:25.124Z,23.40
2018-12-04T08:15:53.292Z,29.33
2018-12-04T08:18:21.465Z,27.73
2018-12-04T08:20:49.651Z,24.67
2018-12-04T08:23:17.854Z,19.83
2018-12-04T08:25:46.105Z,22.43
2018-12-04T08:28:14.321Z,17.47
2018-12-04T08:30:42.537Z,14.50
2018-12-04T08:33:10.697Z,18.90
2018-12-04T08:35:38.850Z,17.13
2018-12-04T08:38:07.117Z,16.00
2018-12-04T08:40:35.282Z,15.90
2018-12-04T08:43:03.472Z,15.90
2018-12-04T08:45:32.408Z,15.17
2018-12-04T08:48:00.568Z,16.37
2018-12-04T08:50:28.734Z,17.30
2018-12-04T08:52:56.935Z,12.00
2018-12-04T08:55:25.140Z,11.50
2018-12-04T08:58:13.104Z,10.70
2018-12-04T09:00:41.413Z,10.97
2018-12-04T09:03:09.576Z,12.10
2018-12-04T09:05:38.385Z,8.30
2018-12-04T09:08:09.376Z,7.57
2018-12-04T09:10:36.757Z,9.40
2018-12-04T09:13:05.041Z,7.73
2018-12-04T09:15:33.248Z,8.77
2018-12-04T09:18:01.422Z,7.40
2018-12-04T09:20:29.696Z,7.20
2018-12-04T09:22:58.578Z,7.07
2018-12-04T09:25:27.080Z,7.10
2018-12-04T09:27:55.884Z,6.67
2018-12-04T09:30:24.234Z,9.03
2018-12-04T09:32:52.397Z,7.30
2018-12-04T09:35:20.665Z,7.60
2018-12-04T09:37:48.829Z,7.50
2018-12-04T09:40:16.993Z,7.43
2018-12-04T09:42:45.269Z,14.33
2018-12-04T09:45:13.564Z,6.50
2018-12-04T09:47:41.836Z,6.90
2018-12-04T09:50:10.060Z,8.30
2018-12-04T09:52:38.308Z,8.13
2018-12-04T09:55:06.855Z,14.20
2018-12-04T09:57:35.051Z,8.60
2018-12-04T10:00:04.294Z,8.57
2018-12-04T10:02:32.461Z,8.33
2018-12-04T10:05:00.625Z,9.60
2018-12-04T10:07:28.889Z,9.27
2018-12-04T10:10:00.583Z,9.80
2018-12-04T10:12:27.302Z,9.53
2018-12-04T10:14:55.499Z,10.77
2018-12-04T10:17:23.688Z,8.00
2018-12-04T10:19:51.882Z,8.47
2018-12-04T10:22:20.095Z,9.50
2018-12-04T10:24:48.330Z,9.13
2018-12-04T10:27:16.547Z,10.23
2018-12-04T10:29:44.770Z,8.90
2018-12-04T10:32:12.963Z,10.13
2018-12-04T10:34:41.129Z,9.80
2018-12-04T10:37:09.391Z,11.10
2018-12-04T10:39:37.562Z,6.50
2018-12-04T10:42:05.789Z,9.60
2018-12-04T10:44:34.042Z,8.00
2018-12-04T10:47:02.266Z,11.17
2018-12-04T10:49:30.442Z,8.30
2018-12-04T10:51:58.629Z,12.50
2018-12-04T10:54:26.824Z,9.03
2018-12-04T10:56:55.089Z,8.80
2018-12-04T10:59:23.338Z,10.37
2018-12-04T11:04:53.098Z,8.07
2018-12-04T11:07:21.312Z,9.77
2018-12-04T11:09:49.508Z,8.20
2018-12-04T11:12:17.760Z,10.97
2018-12-04T11:14:45.924Z,12.93
2018-12-04T11:17:14.157Z,8.60
2018-12-04T11:19:42.311Z,6.30
2018-12-04T11:22:10.474Z,12.93
2018-12-04T11:24:38.675Z,8.47
2018-12-04T11:27:06.867Z,10.30
2018-12-04T11:29:35.236Z,11.57
2018-12-04T11:32:03.492Z,7.93
2018-12-04T11:34:31.725Z,9.80
2018-12-04T11:36:59.987Z,10.60
2018-12-04T11:39:28.157Z,9.47
2018-12-04T11:41:56.379Z,11.43
2018-12-04T11:44:24.553Z,9.73
2018-12-04T11:46:52.730Z,9.47
2018-12-04T11:49:21.105Z,11.83
2018-12-04T11:51:49.251Z,10.23
2018-12-04T11:54:17.411Z,10.60
2018-12-04T11:56:45.649Z,9.43
2018-12-04T11:59:13.933Z,9.10
2018-12-04T12:01:42.100Z,9.67
2018-12-04T12:04:10.309Z,10.50
2018-12-04T12:06:38.509Z,10.13
2018-12-04T12:09:08.717Z,9.23
2018-12-04T12:11:36.924Z,13.20
2018-12-04T12:14:05.152Z,8.47
2018-12-04T12:16:33.405Z,9.53
2018-12-04T12:19:01.600Z,9.67
2018-12-04T12:21:29.768Z,9.97
2018-12-04T12:23:57.981Z,11.53
2018-12-04T12:26:26.149Z,9.43
2018-12-04T12:28:54.309Z,9.53
2018-12-04T12:31:22.509Z,10.30
2018-12-04T12:33:50.674Z,10.97
2018-12-04T12:36:18.958Z,12.57
2018-12-04T12:38:47.157Z,7.37
2018-12-04T12:41:15.411Z,10.03
2018-12-04T12:43:44.530Z,10.50
2018-12-04T12:46:12.999Z,7.83
2018-12-04T12:48:41.289Z,11.27
2018-12-04T12:51:09.487Z,11.00
2018-12-04T12:53:37.684Z,10.23
2018-12-04T12:56:05.883Z,7.20
2018-12-04T12:58:34.088Z,12.90
2018-12-04T13:01:02.312Z,12.93
2018-12-04T13:03:30.475Z,7.20
2018-12-04T13:05:58.682Z,11.83
2018-12-04T13:08:31.977Z,10.10
2018-12-04T13:11:00.191Z,7.33
2018-12-04T13:13:28.644Z,19.07
2018-12-04T13:15:57.096Z,11.30
2018-12-04T13:18:25.339Z,9.93
2018-12-04T13:20:53.575Z,13.57
2018-12-04T13:23:21.789Z,12.23
2018-12-04T13:25:49.998Z,11.83
2018-12-04T13:28:18.159Z,10.53
2018-12-04T13:30:46.444Z,11.17
2018-12-04T13:33:14.656Z,7.90
2018-12-04T13:35:42.858Z,18.40
2018-12-04T13:38:11.077Z,12.60
2018-12-04T13:40:39.683Z,7.80
2018-12-04T13:43:07.859Z,9.77
2018-12-04T13:45:36.052Z,14.07
2018-12-04T13:48:04.270Z,11.70
2018-12-04T13:50:32.441Z,13.20
2018-12-04T13:53:00.650Z,13.97
2018-12-04T13:55:28.855Z,11.20
2018-12-04T13:57:57.006Z,10.27
2018-12-04T14:00:25.218Z,13.17
2018-12-04T14:02:53.405Z,13.43
2018-12-04T14:05:21.622Z,8.90
2018-12-04T14:07:49.869Z,14.73
2018-12-04T14:10:18.171Z,9.50
2018-12-04T14:12:46.346Z,16.43
2018-12-04T14:15:14.891Z,12.93
2018-12-04T14:17:43.110Z,14.10
2018-12-04T14:20:11.323Z,11.33
2018-12-04T14:22:39.573Z,10.53
2018-12-04T14:25:07.873Z,13.90
2018-12-04T14:27:36.075Z,13.20
2018-12-04T14:30:08.300Z,13.67
2018-12-04T14:32:36.555Z,11.80
2018-12-04T14:35:05.110Z,14.97
2018-12-04T14:37:33.351Z,12.20
2018-12-04T14:40:01.585Z,12.50
2018-12-04T14:42:30.018Z,13.03
2018-12-04T14:44:58.261Z,11.13
2018-12-04T14:47:26.465Z,13.00
2018-12-04T14:49:54.832Z,14.37
2018-12-04T14:52:23.125Z,9.87
2018-12-04T14:54:51.407Z,13.90
2018-12-04T14:57:19.618Z,10.30
2018-12-04T14:59:47.991Z,17.67
2018-12-04T15:02:16.271Z,21.33
2018-12-04T15:04:44.434Z,18.80
2018-12-04T15:07:12.679Z,14.80
2018-12-04T15:09:41.047Z,16.60
2018-12-04T15:12:09.231Z,13.70
2018-12-04T15:14:37.444Z,12.23
2018-12-04T15:17:05.604Z,13.50
2018-12-04T15:19:33.906Z,15.67
2018-12-04T15:22:02.130Z,32.57
2018-12-04T15:24:30.303Z,28.27
2018-12-04T15:26:58.564Z,35.40
2018-12-04T15:29:26.783Z,24.90
2018-12-04T15:31:54.951Z,33.43
2018-12-04T15:34:23.157Z,19.70
2018-12-04T15:36:56.524Z,21.00
2018-12-04T15:39:21.669Z,14.60
2018-12-04T15:41:49.920Z,19.27
2018-12-04T15:44:18.621Z,21.53
2018-12-04T15:46:46.827Z,27.47
2018-12-04T15:49:15.009Z,25.87
2018-12-04T15:51:43.385Z,15.87
2018-12-04T15:54:11.987Z,28.23
2018-12-04T15:56:40.233Z,23.20
2018-12-04T15:59:08.459Z,22.70
2018-12-04T16:01:36.619Z,17.40
2018-12-04T16:04:04.922Z,25.80
2018-12-04T16:06:33.268Z,18.23
2018-12-04T16:09:01.512Z,19.70
2018-12-04T16:11:29.685Z,32.40
2018-12-04T16:13:57.887Z,45.67
2018-12-04T16:16:26.074Z,43.90
2018-12-04T16:18:54.288Z,31.70
2018-12-04T16:21:22.492Z,46.27
2018-12-04T16:23:50.660Z,27.50
2018-12-04T16:26:18.825Z,22.53
2018-12-04T16:28:47.033Z,27.93
2018-12-04T16:31:15.209Z,21.90
2018-12-04T16:33:43.937Z,25.63
2018-12-04T16:36:12.292Z,21.70
2018-12-04T16:38:40.459Z,16.60
2018-12-04T16:41:08.769Z,13.30
2018-12-04T16:43:37.175Z,15.60
2018-12-04T16:46:05.425Z,22.80
2018-12-04T16:48:33.614Z,17.23
2018-12-04T16:51:07.235Z,18.10
2018-12-04T16:53:35.476Z,21.20
2018-12-04T16:56:03.634Z,22.37
2018-12-04T16:58:32.183Z,20.53
2018-12-04T17:01:00.371Z,15.03
2018-12-04T17:03:28.584Z,20.70
2018-12-04T17:05:56.793Z,12.80
2018-12-04T17:08:24.975Z,13.23
2018-12-04T17:10:53.153Z,13.57
2018-12-04T17:13:21.413Z,19.77
2018-12-04T17:15:50.070Z,13.97
2018-12-04T17:18:18.236Z,15.33
2018-12-04T17:20:46.452Z,20.70
2018-12-04T17:23:37.765Z,20.53
2018-12-04T17:26:06.091Z,22.07
2018-12-04T17:28:34.288Z,22.23
2018-12-04T17:31:02.620Z,25.87
2018-12-04T17:33:30.835Z,18.73
2018-12-04T17:35:59.028Z,24.17
2018-12-04T17:38:27.227Z,19.30
2018-12-04T17:40:55.504Z,16.00
2018-12-04T17:43:23.756Z,20.97
2018-12-04T17:45:51.970Z,19.23
2018-12-04T17:48:20.561Z,19.23
2018-12-04T17:50:48.776Z,21.40
2018-12-04T17:53:17.051Z,18.43
2018-12-04T17:55:45.262Z,16.00
2018-12-04T17:58:13.454Z,17.00
2018-12-04T18:00:41.702Z,15.17
2018-12-04T18:03:09.980Z,21.23
2018-12-04T18:05:38.145Z,21.73
2018-12-04T18:08:06.333Z,14.33
2018-12-04T18:10:34.537Z,23.13
2018-12-04T18:13:02.759Z,20.53
2018-12-04T18:15:30.929Z,16.50
2018-12-04T18:17:59.161Z,22.90
2018-12-04T18:20:27.338Z,17.40
2018-12-04T18:22:55.516Z,13.57
2018-12-04T18:25:23.882Z,21.33
2018-12-04T18:27:52.049Z,24.30
2018-12-04T18:30:20.247Z,22.53
2018-12-04T18:32:48.433Z,17.00
2018-12-04T18:35:17.510Z,19.77
2018-12-04T18:37:45.695Z,30.10
2018-12-04T18:40:14.009Z,20.73
2018-12-04T18:42:42.217Z,16.90
2018-12-04T18:45:10.436Z,18.60
2018-12-04T18:47:38.661Z,16.37
2018-12-04T18:50:08.126Z,15.90
2018-12-04T18:52:36.527Z,17.23
2018-12-04T18:55:04.940Z,17.53
2018-12-04T18:57:33.160Z,15.30
2018-12-04T19:00:01.450Z,17.47
2018-12-04T19:02:29.698Z,13.43
2018-12-04T19:04:57.921Z,18.03
2018-12-04T19:07:26.262Z,18.07
2018-12-04T19:09:54.481Z,19.37
2018-12-04T19:12:22.706Z,19.30
2018-12-04T19:14:50.881Z,14.67
2018-12-04T19:17:19.092Z,20.23
2018-12-04T19:19:47.362Z,25.97
2018-12-04T19:22:15.596Z,18.70
2018-12-04T19:24:44.930Z,26.50
2018-12-04T19:27:13.707Z,14.30
2018-12-04T19:29:41.919Z,18.30
2018-12-04T19:32:10.161Z,14.67
2018-12-04T19:34:39.245Z,23.60
2018-12-04T19:37:08.447Z,24.13
2018-12-04T19:39:37.165Z,21.57
2018-12-04T19:42:05.385Z,15.23
2018-12-04T19:44:35.135Z,12.90
2018-12-04T19:47:03.711Z,19.30
2018-12-04T19:49:31.870Z,10.93
2018-12-04T19:52:00.056Z,13.00
2018-12-04T19:54:28.322Z,21.47
2018-12-04T19:56:56.553Z,17.93
2018-12-04T19:59:24.747Z,17.37
2018-12-04T20:01:52.941Z,22.13
2018-12-04T20:04:21.242Z,22.03
2018-12-04T20:06:50.340Z,18.43
2018-12-04T20:09:18.607Z,14.93
2018-12-04T20:11:46.955Z,17.40
2018-12-04T20:14:15.128Z,17.43
2018-12-04T20:16:43.297Z,25.60
2018-12-04T20:19:11.510Z,15.83
2018-12-04T20:21:39.735Z,13.97
2018-12-04T20:24:07.931Z,15.23
2018-12-04T20:26:36.152Z,15.20
2018-12-04T20:29:04.475Z,13.90
2018-12-04T20:31:32.660Z,18.20
2018-12-04T20:34:00.865Z,16.67
2018-12-04T20:36:29.048Z,21.50
2018-12-04T20:38:57.374Z,15.80
2018-12-04T20:41:26.967Z,15.50
2018-12-04T20:43:55.374Z,19.70
2018-12-04T20:46:23.805Z,24.03
2018-12-04T20:48:52.000Z,16.77
2018-12-04T20:51:20.865Z,20.13
2018-12-04T20:53:49.599Z,19.60
2018-12-04T20:56:17.902Z,20.80
2018-12-04T20:58:46.319Z,23.67
2018-12-04T21:01:14.552Z,17.40
2018-12-04T21:03:42.771Z,24.40
2018-12-04T21:06:10.943Z,23.80
2018-12-04T21:08:39.199Z,19.77
2018-12-04T21:11:07.462Z,50.87
2018-12-04T21:13:36.434Z,31.37
2018-12-04T21:16:05.609Z,28.47
2018-12-04T21:18:34.114Z,28.30
2018-12-04T21:21:02.374Z,21.70
2018-12-04T21:23:30.544Z,29.60
2018-12-04T21:25:59.437Z,25.07
2018-12-04T21:28:27.614Z,24.73
2018-12-04T21:31:01.313Z,23.80
2018-12-04T21:36:42.013Z,21.67
2018-12-04T21:39:24.151Z,23.63
2018-12-04T21:42:00.406Z,19.10
2018-12-04T21:44:34.601Z,22.87
2018-12-04T21:50:07.857Z,27.73
2018-12-04T21:52:36.028Z,18.40
2018-12-04T21:55:04.937Z,26.20
2018-12-04T21:57:33.184Z,25.57
2018-12-04T22:00:01.362Z,27.80
2018-12-04T22:02:29.543Z,20.30
2018-12-04T22:04:57.768Z,26.63
2018-12-04T22:07:25.932Z,19.33
2018-12-04T22:09:54.110Z,24.13
2018-12-04T22:12:22.334Z,24.57
2018-12-04T22:14:50.505Z,17.87
2018-12-04T22:17:18.677Z,23.60
2018-12-04T22:19:46.884Z,20.60
2018-12-04T22:22:15.064Z,20.90
2018-12-04T22:24:43.228Z,15.33
2018-12-04T22:27:11.467Z,22.57
2018-12-04T22:29:39.645Z,18.20
2018-12-04T22:32:07.814Z,19.27
2018-12-04T22:34:36.016Z,22.93
2018-12-04T22:37:04.261Z,21.60
2018-12-04T22:39:32.419Z,19.07
2018-12-04T22:42:00.633Z,19.33
2018-12-04T22:44:28.844Z,16.70
2018-12-04T22:46:57.087Z,24.27
2018-12-04T22:49:25.339Z,17.33
2018-12-04T22:51:53.505Z,23.30
2018-12-04T22:54:21.721Z,19.60
2018-12-04T22:56:49.935Z,14.67
2018-12-04T22:59:18.105Z,12.73
2018-12-04T23:01:46.370Z,20.70
2018-12-04T23:04:14.663Z,11.37
2018-12-04T23:06:42.871Z,20.67
2018-12-04T23:09:11.121Z,18.43
2018-12-04T23:11:39.815Z,20.57
2018-12-04T23:14:08.060Z,29.83
2018-12-04T23:16:36.473Z,16.93
2018-12-04T23:19:05.475Z,20.63
2018-12-04T23:21:33.637Z,20.40
2018-12-04T23:24:01.804Z,19.53
2018-12-04T23:26:30.041Z,31.70
2018-12-04T23:28:58.196Z,22.10
2018-12-04T23:31:26.433Z,19.27
2018-12-04T23:33:54.659Z,26.93
2018-12-04T23:36:22.867Z,23.27
2018-12-04T23:38:51.040Z,23.90
2018-12-04T23:41:19.245Z,27.80
2018-12-04T23:43:47.418Z,25.83
2018-12-04T23:46:15.642Z,22.80
2018-12-04T23:48:44.025Z,15.33
2018-12-04T23:51:12.188Z,21.20
2018-12-04T23:53:40.356Z,28.70
2018-12-04T23:56:08.555Z,18.67
2018-12-04T23:58:36.731Z,16.87
